Latest Weather Observations for Pallamana

IDS60801

Issued at 11:21 am CDT Thursday 1 December 2022 (issued every 10 minutes, with the page automatically refreshed every 10 minutes)

About weather observations | Map of weather stations | Latest weather observations for SA | Other Formats
Station Details ID: 024584 Name: PALLAMANA AERODROME Lat: -35.06 Lon: 139.23 Height: 45.0 m
Data from the previous 72 hours. | See also: Recent months at Pallamana
Date/Time
CDT
Temp
°C
App
Temp
°C
Dew
Point
°C
Rel
Hum
%
Delta-T
°C
Wind Press
QNH
hPa
Press
MSL
hPa
Rain since
9am
mm
Dir  Spd
km/h
Gust
km/h
Spd
kts
Gust
kts
01/11:00am 20.7 17.5 9.9 50 5.8 SE 17 32 9 17 1018.4 1018.2 0.0
01/10:30am 19.2 16.0 9.9 55 5.0 SE 17 26 9 14 1018.9 1018.7 0.0
01/10:00am 17.9 15.6 10.3 61 4.1 SE 13 20 7 11 1019.1 1019.0 0.0
01/09:30am 17.3 15.2 11.1 67 3.3 SE 13 20 7 11 1019.3 1019.2 0.0
01/09:00am 15.7 13.0 10.2 70 2.9 SSE 15 20 8 11 1019.6 1019.5 0.0
01/08:30am 15.3 12.6 10.3 72 2.6 SSE 15 20 8 11 1019.3 1019.2 0.0
01/08:00am 14.6 12.3 10.6 77 2.1 SSE 13 19 7 10 1019.2 1019.1 0.0
01/07:30am 13.8 11.7 11.3 85 1.3 S 13 19 7 10 1019.2 1019.1 0.0
01/07:00am 12.8 11.0 10.7 87 1.1 S 11 19 6 10 1019.0 1018.9 0.0
01/06:30am 12.7 10.9 10.8 88 1.0 S 11 13 6 7 1018.6 1018.5 0.0
01/06:00am 12.4 10.9 10.6 89 0.9 S 9 13 5 7 1018.6 1018.5 0.0
01/05:30am 12.5 10.7 10.7 89 0.9 S 11 15 6 8 1018.4 1018.3 0.0
01/05:00am 12.6 11.2 10.8 89 0.9 S 9 13 5 7 1018.1 1018.0 0.0
01/04:30am 12.8 10.6 10.9 88 1.0 S 13 19 7 10 1017.8 1017.7 0.0
01/04:00am 13.0 10.9 11.1 88 1.0 S 13 24 7 13 1017.6 1017.5 0.0
01/03:30am 13.2 10.4 11.3 88 1.0 S 17 26 9 14 1017.8 1017.7 0.0
01/03:00am 13.1 10.4 11.8 92 0.7 S 17 28 9 15 1017.9 1017.8 0.0
01/02:30am 13.4 11.2 12.1 92 0.7 S 15 19 8 10 1018.3 1018.2 0.0
01/02:00am 13.4 11.2 12.1 92 0.7 S 15 20 8 11 1018.7 1018.6 0.0
01/01:30am 13.2 11.7 11.9 92 0.7 S 11 15 6 8 1018.8 1018.7 0.0
01/01:00am 14.1 12.3 12.1 88 1.1 SSE 13 17 7 9 1019.0 1018.9 0.0
01/12:30am 14.4 12.7 12.3 87 1.1 SSW 13 17 7 9 1019.1 1019.0 0.0
01/12:00am 14.4 12.3 12.4 88 1.1 SW 15 20 8 11 1019.3 1019.2 0.0
 
Date/Time
CDT
Temp
°C
App
Temp
°C
Dew
Point
°C
Rel
Hum
%
Delta-T
°C
Wind Press
QNH
hPa
Press
MSL
hPa
Rain since
9am
mm
Dir  Spd
km/h
Gust
km/h
Spd
kts
Gust
kts
30/11:30pm 14.1 12.3 12.1 88 1.1 SW 13 15 7 8 1019.4 1019.3 0.0
30/11:00pm 14.2 12.4 12.1 87 1.1 SW 13 19 7 10 1019.3 1019.2 0.0
30/10:30pm 14.0 11.7 11.9 87 1.1 SSW 15 20 8 11 1019.2 1019.1 0.0
30/10:00pm 14.1 11.8 11.8 86 1.2 SSW 15 22 8 12 1019.0 1018.9 0.0
30/09:30pm 13.9 11.6 11.6 86 1.2 SSW 15 22 8 12 1018.9 1018.8 0.0
30/09:00pm 14.7 11.5 11.3 80 1.8 SSW 19 28 10 15 1018.8 1018.7 0.0
30/08:30pm 14.7 11.9 11.3 80 1.8 SSW 17 26 9 14 1018.6 1018.5 0.0
30/08:00pm 15.2 12.0 11.4 78 2.0 SSW 19 26 10 14 1018.4 1018.3 0.0
30/07:30pm 16.0 12.8 11.2 73 2.6 SSW 19 26 10 14 1018.3 1018.2 0.0
30/07:00pm 16.8 13.4 11.3 70 3.0 SSW 20 33 11 18 1018.1 1018.0 0.0
30/06:30pm 17.2 12.6 11.0 67 3.3 SSW 26 33 14 18 1017.8 1017.7 0.0
30/06:00pm 18.3 13.3 10.9 62 4.0 S 28 37 15 20 1017.4 1017.3 0.0
30/05:30pm 19.4 14.5 11.2 59 4.5 S 28 39 15 21 1017.5 1017.4 0.0
30/05:00pm 19.8 14.8 10.8 56 4.9 SSW 28 39 15 21 1017.6 1017.5 0.0
30/04:30pm 20.2 15.4 10.3 53 5.3 SSW 26 39 14 21 1017.5 1017.4 0.0
30/04:00pm 20.4 16.2 9.6 50 5.8 S 22 32 12 17 1017.6 1017.5 0.0
30/03:30pm 20.9 16.4 10.1 50 5.8 S 24 35 13 19 1017.6 1017.5 0.0
30/03:00pm 20.9 17.1 9.8 49 6.0 S 20 33 11 18 1017.8 1017.7 0.0
30/02:30pm 22.0 18.3 10.2 47 6.4 SSE 20 33 11 18 1017.9 1017.8 0.0
30/02:00pm 21.3 17.3 8.9 45 6.6 SSE 20 32 11 17 1018.2 1018.1 0.0
30/01:30pm 20.5 16.5 9.1 48 6.0 SSW 20 32 11 17 1018.4 1018.3 0.0
30/01:00pm 20.9 16.9 8.9 46 6.4 SSW 20 28 11 15 1018.8 1018.7 0.0
30/12:30pm 20.9 18.2 10.4 51 5.7 S 15 24 8 13 1019.1 1019.0 0.0
30/12:00pm 20.0 17.3 9.0 49 5.8 SE 13 22 7 12 1019.5 1019.4 0.0
30/11:30am 19.0 16.6 8.6 51 5.4 SSE 11 20 6 11 1019.9 1019.8 0.0
30/11:00am 18.9 17.2 9.7 55 4.9 SE 9 17 5 9 1020.3 1020.2 0.0
30/10:30am 17.3 14.8 8.4 56 4.5 SSE 11 20 6 11 1020.7 1020.6 0.0
30/10:00am 16.6 14.0 9.3 62 3.8 ESE 13 22 7 12 1021.0 1020.9 0.0
30/09:30am 16.5 14.1 10.1 66 3.4 SE 13 20 7 11 1021.2 1021.1 0.0
30/09:00am 15.5 14.4 10.7 73 2.5 ESE 7 13 4 7 1021.3 1021.2 0.0
30/08:30am 14.4 12.8 10.2 76 2.2 SSE 9 11 5 6 1021.4 1021.3 0.0
30/08:00am 13.4 12.4 10.4 82 1.6 E 6 9 3 5 1021.2 1021.1 0.0
30/07:30am 12.8 13.1 11.0 89 0.9 CALM 0 0 0 0 1021.2 1021.1 0.0
30/07:00am 11.9 12.3 11.1 95 0.4 CALM 0 0 0 0 1021.0 1020.9 0.0
30/06:30am 11.3 11.5 10.7 96 0.3 CALM 0 0 0 0 1020.8 1020.7 0.0
30/06:00am 10.7 10.8 10.1 96 0.3 CALM 0 0 0 0 1020.4 1020.3 0.0
30/05:30am 10.7 9.6 9.9 95 0.4 SW 6 7 3 4 1020.2 1020.1 0.0
30/05:00am 11.2 10.0 10.4 95 0.4 SW 7 7 4 4 1020.0 1019.9 0.0
30/04:30am 10.9 9.7 10.3 96 0.3 SW 7 9 4 5 1019.9 1019.8 0.0
30/04:12am 10.7 9.7 10.2 97 0.3 SW 6 9 3 5 1019.8 1019.7 0.0
30/04:00am 10.3 9.1 9.7 96 0.3 SW 6 7 3 4 1019.7 1019.6 0.0
30/03:53am 10.6 9.5 10.1 97 0.3 SW 6 7 3 4 1019.6 1019.5 0.0
30/03:30am 10.6 9.4 10.3 98 0.2 WSW 7 7 4 4 1019.6 1019.5 0.0
30/03:00am 9.2 8.2 8.7 97 0.2 WSW 4 6 2 3 1019.6 1019.5 0.0
30/02:30am 9.5 8.2 9.2 98 0.1 WSW 6 9 3 5 1019.6 1019.5 0.0
30/02:00am 8.9 7.1 8.1 95 0.4 WSW 7 9 4 5 1019.6 1019.5 0.0
30/01:30am 9.8 8.3 9.0 95 0.4 SSE 7 9 4 5 1019.5 1019.4 0.0
30/01:00am 10.7 8.3 9.9 95 0.4 SW 13 17 7 9 1019.5 1019.4 0.0
30/12:30am 10.2 7.6 9.3 94 0.4 WSW 13 15 7 8 1019.7 1019.6 0.0
30/12:00am 10.3 7.6 9.1 92 0.6 SW 13 17 7 9 1019.8 1019.7 0.0
 
Date/Time
CDT
Temp
°C
App
Temp
°C
Dew
Point
°C
Rel
Hum
%
Delta-T
°C
Wind Press
QNH
hPa
Press
MSL
hPa
Rain since
9am
mm
Dir  Spd
km/h
Gust
km/h
Spd
kts
Gust
kts
29/11:30pm 10.6 7.6 9.4 92 0.6 WSW 15 17 8 9 1019.9 1019.8 0.0
29/11:00pm 11.1 7.8 9.7 91 0.7 SW 17 19 9 10 1020.1 1020.0 0.0
29/10:30pm 11.5 8.3 9.8 89 0.9 SW 17 20 9 11 1020.3 1020.2 0.0
29/10:00pm 11.7 8.5 9.9 89 0.9 SW 17 19 9 10 1020.1 1020.0 0.0
29/09:30pm 12.0 9.1 9.7 86 1.2 SW 15 17 8 9 1020.0 1019.9 0.0
29/09:00pm 12.8 9.5 9.6 81 1.6 SW 17 20 9 11 1019.7 1019.6 0.0
29/08:30pm 13.4 10.8 9.3 76 2.1 SSW 13 17 7 9 1019.7 1019.6 0.0
29/08:00pm 14.8 11.4 9.2 69 2.9 SSW 17 24 9 13 1019.5 1019.4 0.0
29/07:30pm 16.5 12.7 9.2 62 3.8 SSW 19 26 10 14 1019.1 1019.0 0.0
29/07:00pm 17.6 13.1 8.7 56 4.6 SSW 22 33 12 18 1018.9 1018.8 0.0
29/06:30pm 17.5 13.5 9.2 58 4.3 S 20 28 11 15 1018.5 1018.4 0.0
29/06:00pm 17.9 14.1 9.0 56 4.6 S 19 30 10 16 1018.4 1018.3 0.0
29/05:30pm 18.0 13.6 9.1 56 4.6 S 22 30 12 16 1018.3 1018.2 0.0
29/05:00pm 18.1 13.5 9.5 57 4.5 S 24 32 13 17 1018.2 1018.1 0.0
29/04:30pm 18.4 14.5 9.5 56 4.7 SSW 20 30 11 16 1018.1 1018.0 0.0
29/04:00pm 18.8 15.1 9.3 54 5.0 S 19 30 10 16 1018.2 1018.1 0.0
29/03:30pm 18.6 14.7 9.4 55 4.8 SSW 20 32 11 17 1018.4 1018.3 0.0
29/03:00pm 18.8 15.4 9.0 53 5.1 SSW 17 22 9 12 1018.6 1018.5 0.0
29/02:30pm 18.1 14.8 9.7 58 4.4 SSW 17 24 9 13 1018.7 1018.6 0.0
29/02:00pm 17.3 13.1 9.7 61 4.0 SW 22 28 12 15 1019.1 1019.0 0.0
29/01:30pm 17.4 14.2 9.8 61 4.0 SSW 17 20 9 11 1019.2 1019.1 0.0
29/01:00pm 17.1 13.4 10.2 64 3.7 SSW 20 30 11 16 1019.4 1019.3 0.0
29/12:30pm 17.5 14.5 10.6 64 3.7 SSW 17 22 9 12 1019.4 1019.3 0.0
29/12:00pm 17.5 13.8 10.1 62 3.9 SSW 20 28 11 15 1019.4 1019.3 0.0
29/11:30am 17.6 14.9 9.0 57 4.5 SW 13 20 7 11 1019.4 1019.3 0.0
29/11:00am 17.4 14.0 9.1 58 4.3 SW 17 26 9 14 1019.5 1019.4 0.0
29/10:30am 16.9 14.1 8.6 58 4.3 SSW 13 20 7 11 1019.7 1019.6 0.0
29/10:00am 16.4 12.9 8.6 60 4.0 SW 17 26 9 14 1019.7 1019.6 0.0
29/09:30am 15.9 12.7 8.6 62 3.7 WSW 15 20 8 11 1019.7 1019.6 0.0
29/09:00am 15.8 11.7 8.5 62 3.7 WSW 20 26 11 14 1019.5 1019.4 0.0
29/08:30am 15.7 12.6 8.9 64 3.5 SW 15 20 8 11 1019.2 1019.1 0.0
29/08:00am 15.4 11.9 8.6 64 3.5 SW 17 20 9 11 1019.0 1018.9 0.0
29/07:30am 15.0 11.9 10.2 73 2.5 SW 17 20 9 11 1018.8 1018.7 0.0
29/07:00am 14.5 11.6 9.5 72 2.6 WSW 15 20 8 11 1018.4 1018.3 0.0
29/06:30am 14.2 11.4 8.6 69 2.8 WSW 13 17 7 9 1018.1 1018.0 0.0
29/06:00am 14.0 11.1 8.2 68 2.9 WSW 13 17 7 9 1017.6 1017.5 0.0
29/05:30am 14.1 11.1 7.9 66 3.1 W 13 17 7 9 1017.3 1017.2 0.0
29/05:00am 14.2 11.3 8.2 67 3.0 W 13 15 7 8 1017.0 1016.9 0.0
29/04:30am 14.1 11.4 8.9 71 2.6 WSW 13 20 7 11 1016.9 1016.8 0.0
29/04:00am 14.2 10.9 9.6 74 2.4 WSW 17 22 9 12 1016.8 1016.7 0.0
29/03:30am 14.1 11.3 10.1 77 2.1 WSW 15 19 8 10 1016.7 1016.6 0.0
29/03:00am 14.3 10.5 9.9 75 2.3 WSW 20 32 11 17 1016.6 1016.5 0.0
29/02:30am 14.3 11.5 9.9 75 2.3 SW 15 19 8 10 1016.7 1016.6 0.0
29/02:00am 14.4 11.5 9.8 74 2.4 WSW 15 20 8 11 1016.6 1016.5 0.0
29/01:30am 14.5 11.7 9.9 74 2.4 SW 15 19 8 10 1016.7 1016.6 0.0
29/01:00am 14.6 11.1 10.2 75 2.3 SW 19 28 10 15 1016.8 1016.7 0.0
29/12:30am 14.6 12.0 10.6 77 2.1 SW 15 19 8 10 1016.8 1016.7 0.0
29/12:00am 14.7 11.7 10.7 77 2.1 SW 17 20 9 11 1016.8 1016.7 0.0
 
Date/Time
CDT
Temp
°C
App
Temp
°C
Dew
Point
°C
Rel
Hum
%
Delta-T
°C
Wind Press
QNH
hPa
Press
MSL
hPa
Rain since
9am
mm
Dir  Spd
km/h
Gust
km/h
Spd
kts
Gust
kts
28/11:30pm 14.7 11.8 10.9 78 2.0 SW 17 24 9 13 1016.9 1016.8 0.0
28/11:00pm 14.4 11.5 11.0 80 1.8 SW 17 24 9 13 1016.8 1016.7 0.0
28/10:30pm 14.7 11.8 10.9 78 2.0 SW 17 24 9 13 1016.6 1016.5 0.0
28/10:00pm 14.8 12.5 11.6 81 1.7 SW 15 20 8 11 1016.3 1016.2 0.0
28/09:30pm 14.5 13.4 12.0 85 1.4 SW 9 11 5 6 1015.8 1015.7 0.0
28/09:00pm 13.4 12.2 11.5 88 1.0 SW 9 11 5 6 1015.4 1015.3 0.0
28/08:30pm 13.7 11.6 11.0 84 1.4 SW 13 19 7 10 1015.1 1015.0 0.0
28/08:00pm 15.3 11.5 11.1 76 2.2 SW 22 30 12 16 1014.8 1014.7 0.0
28/07:30pm 15.7 12.2 10.9 73 2.6 SSW 20 30 11 16 1014.4 1014.3 0.0
28/07:00pm 16.5 12.6 10.8 69 3.0 SSW 22 28 12 15 1014.1 1014.0 0.0
28/06:30pm 17.8 14.3 10.9 64 3.7 SW 20 28 11 15 1013.7 1013.6 0.0
28/06:00pm 17.6 14.0 10.5 63 3.8 SW 20 26 11 14 1013.4 1013.3 0.0
28/05:30pm 18.1 14.4 10.2 60 4.2 SW 20 30 11 16 1013.1 1013.0 0.0
28/05:00pm 18.0 13.4 9.6 58 4.4 SW 24 33 13 18 1013.1 1013.0 0.0
28/04:30pm 18.8 14.1 9.3 54 5.0 SW 24 33 13 18 1013.0 1012.9 0.0
28/04:00pm 18.3 14.2 10.2 59 4.3 SSW 22 32 12 17 1013.0 1012.9 0.0
28/03:30pm 18.9 14.2 9.4 54 5.0 SSW 24 32 13 17 1013.0 1012.9 0.0
28/03:00pm 18.3 13.9 9.1 55 4.8 SSW 22 33 12 18 1013.1 1013.0 0.0
28/02:30pm 18.2 13.8 9.0 55 4.8 SSW 22 33 12 18 1013.1 1013.0 0.0
28/02:00pm 18.2 15.4 8.7 54 4.9 SSW 13 19 7 10 1013.2 1013.1 0.0
28/01:30pm 18.3 14.9 9.1 55 4.8 SW 17 26 9 14 1013.4 1013.3 0.0
28/01:00pm 17.8 14.3 8.6 55 4.8 WSW 17 24 9 13 1013.5 1013.4 0.0
28/12:30pm 18.0 14.0 9.1 56 4.6 WSW 20 30 11 16 1013.6 1013.5 0.0
28/12:00pm 17.6 13.7 8.5 55 4.7 SW 19 30 10 16 1013.6 1013.5 0.0
28/11:30am 16.6 11.9 9.1 61 3.9 SSW 24 35 13 19 1013.6 1013.5 0.0

Other formats

Comma delimited format used in spreadsheet applications
http://www.bom.gov.au/fwo/IDS60801/IDS60801.95818.axf

JavaScript Object Notation format (JSON) in row-major order
http://www.bom.gov.au/fwo/IDS60801/IDS60801.95818.json

Data quality

Most of these data are generated automatically and are frequently updated. Quality checks on data are not normally performed. It is possible for incorrect values to appear. Refer to information at About Latest Weather Observations and please check the disclaimer before using these data.